Time;durP1;ratioP1;P1;durP2;ratioP2;P2;SDS_P1;SDS_P2;PMS_P1;PMS_P2;Temp;Humidity;BMP_temperature;BMP_pressure;BME280_temperature;BME280_humidity;BME280_pressure;Samples;Min_cycle;Max_cycle;Signal;HPM_P1;HPM_P2
2021/05/24 00:01:10;;;;;;;;;;;;;;;7.34;95.11;101516.13;4996290;28;20802;-76
2021/05/24 00:03:36;;;;;;;;;;;;;;;7.40;94.34;101511.31;5002870;28;19924;-76
2021/05/24 00:06:01;;;;;;;;;;;;;;;7.43;94.49;101517.28;5021549;28;20673;-75
2021/05/24 00:08:27;;;;;;;;;;;;;;;7.48;94.35;101502.97;5022108;28;19921;-76
2021/05/24 00:11:02;;;;;;;;;;;;;;;7.44;94.64;101504.13;5016156;28;19935;-77
2021/05/24 00:13:28;;;;;;;;;;;;;;;7.46;94.07;101506.59;5019489;28;19944;-75
2021/05/24 00:15:55;;;;;;;;;;;;;;;7.44;94.42;101505.88;5004881;28;19929;-76
2021/05/24 00:18:21;;;;;;;;;;;;;;;7.49;94.24;101502.00;5019390;28;19925;-76
2021/05/24 00:20:54;;;;;;;;;;;;;;;7.43;94.70;101507.66;4979956;28;19928;-76
2021/05/24 00:23:19;;;;;;;;;;;;;;;7.44;94.59;101498.03;5021328;28;19924;-76
2021/05/24 00:25:45;;;;;;;;;;;;;;;7.54;94.43;101501.69;5022098;28;19971;-76
2021/05/24 00:28:14;;;;;;;;;;;;;;;7.53;93.90;101497.41;4995575;28;19961;-78
2021/05/24 00:30:41;;;;;;;;;;;;;;;7.57;94.21;101493.63;5020405;28;20976;-76
2021/05/24 00:33:07;;;;;;;;;;;;;;;7.61;93.88;101492.50;5021094;28;19942;-76
2021/05/24 00:35:33;;;;;;;;;;;;;;;7.57;94.26;101480.56;5006213;28;19933;-76
2021/05/24 00:38:18;;;;;;;;;;;;;;;7.57;94.25;101477.97;5006969;28;19925;-77
2021/05/24 00:40:44;;;;;;;;;;;;;;;7.66;93.03;101473.88;4999480;28;20584;-77
2021/05/24 00:43:09;;;;;;;;;;;;;;;7.73;92.73;101468.09;4973430;28;20696;-77
2021/05/24 00:45:35;;;;;;;;;;;;;;;7.70;92.80;101460.47;5018418;28;19929;-76
2021/05/24 00:48:02;;;;;;;;;;;;;;;7.70;93.57;101460.47;5017597;28;19928;-77
2021/05/24 00:50:28;;;;;;;;;;;;;;;7.66;94.01;101456.41;5001048;28;19933;-77
2021/05/24 00:52:53;;;;;;;;;;;;;;;7.62;94.48;101460.19;5000842;28;19929;-77
2021/05/24 00:55:19;;;;;;;;;;;;;;;7.61;93.59;101455.94;4994238;28;19929;-76
2021/05/24 00:57:44;;;;;;;;;;;;;;;7.64;93.67;101450.47;5007030;28;20433;-77
2021/05/24 01:00:14;;;;;;;;;;;;;;;7.65;93.58;101446.94;4995170;28;19949;-76
2021/05/24 01:02:39;;;;;;;;;;;;;;;7.64;94.26;101447.03;5025154;28;20231;-77
2021/05/24 01:05:05;;;;;;;;;;;;;;;7.68;93.67;101436.25;5019903;28;20407;-76
2021/05/24 01:07:31;;;;;;;;;;;;;;;7.64;93.49;101433.97;5022174;28;19928;-77
2021/05/24 01:09:56;;;;;;;;;;;;;;;7.59;94.29;101426.47;5015920;28;20472;-77
2021/05/24 01:12:22;;;;;;;;;;;;;;;7.60;94.09;101430.75;5004045;28;19929;-77
2021/05/24 01:14:52;;;;;;;;;;;;;;;7.66;93.92;101434.69;5017869;28;19929;-76
2021/05/24 01:17:17;;;;;;;;;;;;;;;7.69;93.58;101421.44;5027384;28;19967;-76
2021/05/24 01:19:44;;;;;;;;;;;;;;;7.72;93.49;101423.81;5024133;28;19925;-76
2021/05/24 01:22:15;;;;;;;;;;;;;;;7.67;93.85;101410.28;5028559;28;20307;-77
2021/05/24 01:24:40;;;;;;;;;;;;;;;7.66;93.69;101412.03;5020498;28;19926;-76
2021/05/24 01:27:06;;;;;;;;;;;;;;;7.69;94.48;101413.59;5019026;28;19933;-76
2021/05/24 01:29:32;;;;;;;;;;;;;;;7.68;93.48;101415.34;5021541;28;19929;-75
2021/05/24 01:31:57;;;;;;;;;;;;;;;7.76;93.08;101417.41;5005740;28;20527;-76
2021/05/24 01:34:23;;;;;;;;;;;;;;;7.72;92.76;101413.38;5024371;28;19987;-77
2021/05/24 01:36:50;;;;;;;;;;;;;;;7.77;92.50;101414.69;5022868;28;19928;-76
2021/05/24 01:39:23;;;;;;;;;;;;;;;7.75;92.63;101413.97;5023302;28;19989;-77
2021/05/24 01:41:49;;;;;;;;;;;;;;;7.73;92.13;101405.41;5024610;28;20443;-77
2021/05/24 01:44:25;;;;;;;;;;;;;;;7.71;92.23;101401.25;5021185;28;19980;-76
2021/05/24 01:46:51;;;;;;;;;;;;;;;7.73;92.16;101408.03;5041048;28;19928;-76
2021/05/24 01:49:16;;;;;;;;;;;;;;;7.70;91.69;101396.97;5025712;28;19925;-76
2021/05/24 01:51:42;;;;;;;;;;;;;;;7.67;91.80;101398.03;5025391;28;19924;-75
2021/05/24 01:54:07;;;;;;;;;;;;;;;7.73;91.21;101397.59;5010922;28;19979;-77
2021/05/24 01:56:33;;;;;;;;;;;;;;;7.73;91.50;101394.16;5009278;28;20387;-76
2021/05/24 01:58:58;;;;;;;;;;;;;;;7.65;92.06;101394.72;4992692;28;19922;-76
2021/05/24 02:01:24;;;;;;;;;;;;;;;7.66;91.48;101388.53;5021214;28;20422;-76
2021/05/24 02:03:49;;;;;;;;;;;;;;;7.66;92.17;101385.09;5042377;28;19917;-76
2021/05/24 02:06:14;;;;;;;;;;;;;;;7.63;92.15;101387.91;4993718;28;19918;-76
2021/05/24 02:08:40;;;;;;;;;;;;;;;7.58;91.88;101385.66;5009412;28;20288;-76
2021/05/24 02:11:05;;;;;;;;;;;;;;;7.59;91.96;101385.53;5003338;28;19925;-77
2021/05/24 02:13:31;;;;;;;;;;;;;;;7.60;91.94;101387.19;5023146;28;19925;-76
2021/05/24 02:15:56;;;;;;;;;;;;;;;7.58;92.24;101383.03;5018368;28;20303;-77
2021/05/24 02:18:22;;;;;;;;;;;;;;;7.55;92.27;101375.41;5010632;28;19921;-77
2021/05/24 02:20:47;;;;;;;;;;;;;;;7.54;92.36;101373.78;5009120;28;20008;-77
2021/05/24 02:23:13;;;;;;;;;;;;;;;7.53;91.49;101372.91;5008879;28;20678;-77
2021/05/24 02:25:39;;;;;;;;;;;;;;;7.57;91.41;101373.53;5009707;28;19918;-77
2021/05/24 02:28:05;;;;;;;;;;;;;;;7.55;91.32;101376.28;5008412;28;19937;-77
2021/05/24 02:30:30;;;;;;;;;;;;;;;7.58;91.40;101370.81;5007932;28;19923;-76
2021/05/24 02:32:56;;;;;;;;;;;;;;;7.58;90.47;101373.41;4991577;28;19926;-77
2021/05/24 02:35:22;;;;;;;;;;;;;;;7.55;91.80;101380.63;5008024;28;19921;-76
2021/05/24 02:37:48;;;;;;;;;;;;;;;7.54;91.15;101365.94;5039601;28;19916;-78
2021/05/24 02:40:14;;;;;;;;;;;;;;;7.55;90.90;101368.44;5028067;28;19948;-77
2021/05/24 02:42:40;;;;;;;;;;;;;;;7.56;89.75;101369.28;5028424;28;20104;-77
2021/05/24 02:45:06;;;;;;;;;;;;;;;7.57;89.63;101374.38;5012094;28;19928;-77
2021/05/24 02:47:32;;;;;;;;;;;;;;;7.59;89.69;101366.41;5012643;28;20051;-77
2021/05/24 02:49:58;;;;;;;;;;;;;;;7.56;90.16;101359.66;5024766;28;19982;-77
2021/05/24 02:52:23;;;;;;;;;;;;;;;7.54;90.85;101356.31;5016892;28;20342;-78
2021/05/24 02:54:49;;;;;;;;;;;;;;;7.52;90.55;101368.66;5024466;28;19925;-78
2021/05/24 02:57:14;;;;;;;;;;;;;;;7.53;90.65;101370.31;5003654;28;19948;-79
2021/05/24 02:59:40;;;;;;;;;;;;;;;7.57;90.05;101363.09;5002831;28;19925;-77
2021/05/24 03:02:06;;;;;;;;;;;;;;;7.57;90.23;101360.47;5028359;28;20865;-79
2021/05/24 03:04:32;;;;;;;;;;;;;;;7.52;90.24;101366.03;5017345;28;19926;-77
2021/05/24 03:06:58;;;;;;;;;;;;;;;7.59;90.14;101358.59;5043003;28;19929;-78
2021/05/24 03:09:24;;;;;;;;;;;;;;;7.59;90.59;101364.66;5026214;28;19921;-78
2021/05/24 03:11:50;;;;;;;;;;;;;;;7.52;90.79;101368.66;5011354;28;19921;-77
2021/05/24 03:14:15;;;;;;;;;;;;;;;7.54;90.87;101364.16;5027040;28;19929;-78
2021/05/24 03:16:42;;;;;;;;;;;;;;;7.50;90.59;101362.72;5038430;28;19931;-78
2021/05/24 03:19:07;;;;;;;;;;;;;;;7.51;89.50;101364.38;5023650;28;19921;-78
2021/05/24 03:21:33;;;;;;;;;;;;;;;7.50;89.97;101370.53;5006061;28;19988;-78
2021/05/24 03:23:58;;;;;;;;;;;;;;;7.52;90.08;101370.44;5014042;28;19925;-78
2021/05/24 03:26:24;;;;;;;;;;;;;;;7.52;90.92;101360.81;5009781;28;19921;-78
2021/05/24 03:28:49;;;;;;;;;;;;;;;7.53;90.07;101365.09;5011551;28;19926;-78
2021/05/24 03:31:15;;;;;;;;;;;;;;;7.51;91.16;101372.19;5009696;28;20426;-78
2021/05/24 03:33:41;;;;;;;;;;;;;;;7.52;90.78;101367.84;5010047;28;19996;-77
2021/05/24 03:36:07;;;;;;;;;;;;;;;7.56;89.96;101366.66;5009523;28;19933;-78
2021/05/24 03:38:33;;;;;;;;;;;;;;;7.59;89.07;101362.03;5007907;28;19987;-78
2021/05/24 03:40:58;;;;;;;;;;;;;;;7.65;89.34;101352.06;5009164;28;20474;-78
2021/05/24 03:43:24;;;;;;;;;;;;;;;7.66;87.77;101349.34;5010575;28;20289;-78
2021/05/24 03:45:49;;;;;;;;;;;;;;;7.67;88.55;101350.22;5008983;28;20336;-77
2021/05/24 03:48:15;;;;;;;;;;;;;;;7.66;88.72;101345.94;5029449;28;19960;-77
2021/05/24 03:50:40;;;;;;;;;;;;;;;7.68;87.70;101352.69;5028719;28;19929;-78
2021/05/24 03:53:06;;;;;;;;;;;;;;;7.68;87.95;101344.03;5042473;28;20336;-78
2021/05/24 03:55:31;;;;;;;;;;;;;;;7.70;87.96;101340.34;5001426;28;19925;-77
2021/05/24 03:57:57;;;;;;;;;;;;;;;7.73;86.92;101344.53;5010125;28;20425;-78
2021/05/24 04:00:22;;;;;;;;;;;;;;;7.71;87.08;101336.81;5025979;28;20015;-78
2021/05/24 04:02:48;;;;;;;;;;;;;;;7.70;88.05;101340.34;5026794;28;19925;-78
2021/05/24 04:05:24;;;;;;;;;;;;;;;7.73;87.68;101350.59;5032203;28;19921;-78
2021/05/24 04:07:53;;;;;;;;;;;;;;;7.75;87.91;101346.06;5016196;28;19940;-78
2021/05/24 04:10:20;;;;;;;;;;;;;;;7.73;88.28;101339.31;5031289;28;19921;-77
2021/05/24 04:12:45;;;;;;;;;;;;;;;7.70;87.97;101342.13;5032133;28;19921;-76
2021/05/24 04:15:12;;;;;;;;;;;;;;;7.70;87.80;101342.97;4996741;28;19938;-76
2021/05/24 04:17:40;;;;;;;;;;;;;;;7.68;86.90;101338.81;5024531;28;19952;-77
2021/05/24 04:20:07;;;;;;;;;;;;;;;7.75;87.27;101345.25;5026197;28;19925;-77
2021/05/24 04:22:32;;;;;;;;;;;;;;;7.78;86.89;101342.44;5009821;28;20016;-77
2021/05/24 04:24:58;;;;;;;;;;;;;;;7.75;87.32;101337.41;5011752;28;20059;-78
2021/05/24 04:27:23;;;;;;;;;;;;;;;7.72;87.10;101342.84;5017385;28;19948;-78
2021/05/24 04:29:48;;;;;;;;;;;;;;;7.70;88.02;101334.31;5025631;28;19921;-78
2021/05/24 04:32:14;;;;;;;;;;;;;;;7.70;86.75;101336.91;5022138;28;20043;-77
2021/05/24 04:34:39;;;;;;;;;;;;;;;7.73;87.81;101334.91;4992023;28;19925;-78
2021/05/24 04:37:05;;;;;;;;;;;;;;;7.70;86.81;101326.47;5010364;28;19968;-78
2021/05/24 04:39:30;;;;;;;;;;;;;;;7.71;86.36;101328.16;5007793;28;19927;-75
2021/05/24 04:41:56;;;;;;;;;;;;;;;7.76;86.53;101323.41;5009480;28;19925;-75
2021/05/24 04:44:21;;;;;;;;;;;;;;;7.78;86.87;101331.97;4990726;28;20005;-76
2021/05/24 04:46:47;;;;;;;;;;;;;;;7.85;87.08;101327.94;5009104;28;19929;-76
2021/05/24 04:49:13;;;;;;;;;;;;;;;7.90;86.24;101325.81;5007568;28;19931;-76
2021/05/24 04:51:38;;;;;;;;;;;;;;;8.01;86.53;101324.19;5007565;28;19960;-77
2021/05/24 04:54:05;;;;;;;;;;;;;;;8.15;84.64;101329.19;5008704;28;19967;-77
2021/05/24 04:56:31;;;;;;;;;;;;;;;8.22;84.96;101326.97;4988183;28;19926;-77
2021/05/24 04:58:56;;;;;;;;;;;;;;;8.26;84.75;101318.75;5000089;28;19932;-77
2021/05/24 05:01:22;;;;;;;;;;;;;;;8.37;84.63;101320.56;4999005;28;20350;-76
2021/05/24 05:03:47;;;;;;;;;;;;;;;8.54;83.35;101321.91;5007087;28;19926;-77
2021/05/24 05:06:13;;;;;;;;;;;;;;;8.72;82.18;101323.09;5007446;28;19922;-78
2021/05/24 05:08:38;;;;;;;;;;;;;;;8.83;82.61;101316.16;5023463;28;19964;-77
2021/05/24 05:11:03;;;;;;;;;;;;;;;8.95;82.11;101317.84;5041758;28;19925;-77
2021/05/24 05:13:29;;;;;;;;;;;;;;;9.14;81.03;101317.19;5018417;28;19932;-77
2021/05/24 05:15:54;;;;;;;;;;;;;;;9.45;80.30;101306.84;5019353;28;20394;-77
2021/05/24 05:18:20;;;;;;;;;;;;;;;9.63;79.43;101307.97;5028271;28;19936;-77
2021/05/24 05:20:46;;;;;;;;;;;;;;;9.88;78.22;101311.16;5019649;28;19929;-77
2021/05/24 05:23:12;;;;;;;;;;;;;;;10.06;78.04;101307.00;5027141;28;19925;-75
2021/05/24 05:25:37;;;;;;;;;;;;;;;10.32;78.07;101303.97;5025226;28;19925;-76
2021/05/24 05:28:03;;;;;;;;;;;;;;;10.55;77.62;101304.66;5024075;28;19928;-76
2021/05/24 05:30:28;;;;;;;;;;;;;;;10.53;75.83;101303.94;5019774;28;19929;-77
2021/05/24 05:32:53;;;;;;;;;;;;;;;10.52;75.17;101310.97;5028051;28;19925;-77
2021/05/24 05:35:19;;;;;;;;;;;;;;;10.39;74.84;101306.91;5027720;28;19925;-77
2021/05/24 05:37:48;;;;;;;;;;;;;;;10.28;76.02;101302.56;5021520;28;20056;-77
2021/05/24 05:40:17;;;;;;;;;;;;;;;10.28;75.10;101298.16;5026653;28;19928;-75
2021/05/24 05:42:43;;;;;;;;;;;;;;;10.26;77.34;101301.84;5015479;28;19932;-75
2021/05/24 05:45:09;;;;;;;;;;;;;;;10.34;74.63;101291.59;5005154;28;20016;-76
2021/05/24 05:47:34;;;;;;;;;;;;;;;10.32;75.31;101299.59;5006946;28;20392;-76
2021/05/24 05:50:00;;;;;;;;;;;;;;;10.32;76.32;101294.34;5005826;28;19929;-77
2021/05/24 05:52:26;;;;;;;;;;;;;;;10.30;75.31;101290.13;5008104;28;20459;-75
2021/05/24 05:54:52;;;;;;;;;;;;;;;10.31;75.87;101294.47;5007700;28;20023;-77
2021/05/24 05:57:17;;;;;;;;;;;;;;;10.32;77.22;101293.50;4995714;28;19953;-76
2021/05/24 05:59:43;;;;;;;;;;;;;;;10.49;77.10;101292.91;5028380;28;19925;-77
2021/05/24 06:02:08;;;;;;;;;;;;;;;10.79;76.14;101292.97;5028947;28;19921;-75
2021/05/24 06:04:34;;;;;;;;;;;;;;;11.03;75.77;101287.34;5024483;28;19936;-77
2021/05/24 06:06:59;;;;;;;;;;;;;;;11.25;74.11;101279.22;5029297;28;20307;-77
2021/05/24 06:09:25;;;;;;;;;;;;;;;11.48;72.88;101279.78;5012459;28;19932;-77
2021/05/24 06:11:52;;;;;;;;;;;;;;;11.65;72.97;101282.66;5006385;28;19965;-76
2021/05/24 06:14:18;;;;;;;;;;;;;;;11.84;72.64;101281.81;5008775;28;19933;-76
2021/05/24 06:16:46;;;;;;;;;;;;;;;12.01;72.09;101280.28;5004323;28;19925;-77
2021/05/24 06:19:11;;;;;;;;;;;;;;;12.13;71.85;101275.66;5007217;28;19929;-78
2021/05/24 06:21:38;;;;;;;;;;;;;;;12.01;71.25;101278.47;5010141;28;19976;-76
2021/05/24 06:24:04;;;;;;;;;;;;;;;12.07;70.01;101277.91;4993169;28;19926;-77
2021/05/24 06:26:29;;;;;;;;;;;;;;;12.16;70.53;101281.47;5005722;28;20005;-76
2021/05/24 06:28:54;;;;;;;;;;;;;;;12.25;68.53;101283.22;4994283;28;20007;-77
2021/05/24 06:31:20;;;;;;;;;;;;;;;12.29;69.67;101281.16;5002264;28;20384;-76
2021/05/24 06:33:45;;;;;;;;;;;;;;;12.34;68.85;101278.91;5006673;28;19926;-75
2021/05/24 06:36:11;;;;;;;;;;;;;;;12.50;67.01;101277.47;5008856;28;19929;-76
2021/05/24 06:38:36;;;;;;;;;;;;;;;12.60;68.63;101272.97;5015165;28;20478;-77
2021/05/24 06:41:02;;;;;;;;;;;;;;;12.73;67.22;101267.34;5024299;28;19925;-76
2021/05/24 06:43:27;;;;;;;;;;;;;;;12.80;68.55;101268.44;5020453;28;19929;-77
2021/05/24 06:45:52;;;;;;;;;;;;;;;12.89;66.24;101274.63;5028143;28;19926;-77
2021/05/24 06:48:18;;;;;;;;;;;;;;;13.02;66.66;101280.34;5009900;28;19922;-77
2021/05/24 06:50:43;;;;;;;;;;;;;;;13.00;65.58;101274.41;5008302;28;20020;-77
2021/05/24 06:53:09;;;;;;;;;;;;;;;13.16;68.30;101277.19;5006698;28;19928;-78
2021/05/24 06:55:34;;;;;;;;;;;;;;;13.40;66.66;101265.25;5007784;28;20577;-77
2021/05/24 06:57:59;;;;;;;;;;;;;;;13.57;68.18;101264.38;5007906;28;20376;-76
2021/05/24 07:00:25;;;;;;;;;;;;;;;13.79;66.34;101270.16;5003557;28;20324;-76
2021/05/24 07:02:51;;;;;;;;;;;;;;;13.91;65.87;101258.34;4974703;28;20009;-77
2021/05/24 07:05:17;;;;;;;;;;;;;;;13.99;63.69;101253.16;5007971;28;19941;-75
2021/05/24 07:07:42;;;;;;;;;;;;;;;14.18;64.38;101254.72;5012891;28;20408;-76
2021/05/24 07:10:08;;;;;;;;;;;;;;;14.33;65.81;101259.38;5010659;28;19925;-76
2021/05/24 07:12:34;;;;;;;;;;;;;;;14.44;65.52;101253.81;5009961;28;19928;-77
2021/05/24 07:15:02;;;;;;;;;;;;;;;14.56;62.76;101243.78;4991038;28;19933;-77
2021/05/24 07:17:28;;;;;;;;;;;;;;;14.66;63.04;101235.78;5008150;28;19921;-76
2021/05/24 07:19:53;;;;;;;;;;;;;;;14.75;63.09;101238.28;5000036;28;20395;-79
2021/05/24 07:22:19;;;;;;;;;;;;;;;14.90;61.40;101240.28;5019215;28;19925;-76
2021/05/24 07:24:45;;;;;;;;;;;;;;;14.89;60.85;101225.44;5003702;28;20081;-77
2021/05/24 07:27:10;;;;;;;;;;;;;;;14.98;62.08;101229.75;4990372;28;19975;-77
2021/05/24 07:29:35;;;;;;;;;;;;;;;15.14;61.78;101224.47;5003870;28;19925;-78
2021/05/24 07:32:01;;;;;;;;;;;;;;;15.21;61.45;101221.97;4999350;28;19921;-77
2021/05/24 07:34:26;;;;;;;;;;;;;;;15.41;59.45;101219.00;5025241;28;20374;-78
2021/05/24 07:36:52;;;;;;;;;;;;;;;15.41;60.62;101225.13;5032020;28;19956;-77
2021/05/24 07:39:17;;;;;;;;;;;;;;;15.66;60.60;101227.75;5011970;28;19929;-78
2021/05/24 07:41:43;;;;;;;;;;;;;;;15.81;58.58;101223.44;5025065;28;20359;-75
2021/05/24 07:44:08;;;;;;;;;;;;;;;15.87;59.37;101220.09;5009325;28;19961;-76
2021/05/24 07:46:34;;;;;;;;;;;;;;;16.17;59.33;101222.16;5008286;28;19928;-76
2021/05/24 07:49:00;;;;;;;;;;;;;;;16.12;56.81;101212.94;5015877;28;19925;-75
2021/05/24 07:51:25;;;;;;;;;;;;;;;16.19;59.26;101221.00;5016464;28;20016;-76
2021/05/24 07:53:54;;;;;;;;;;;;;;;16.31;58.08;101224.06;5027098;28;19943;-76
2021/05/24 07:56:19;;;;;;;;;;;;;;;16.21;56.83;101229.59;5028003;28;20004;-76
2021/05/24 07:58:45;;;;;;;;;;;;;;;16.29;58.10;101221.63;5024303;28;20063;-76
2021/05/24 08:01:10;;;;;;;;;;;;;;;16.53;60.17;101215.34;5026911;28;19925;-76
2021/05/24 08:03:37;;;;;;;;;;;;;;;16.73;56.79;101206.97;5003547;28;20015;-77
2021/05/24 08:06:02;;;;;;;;;;;;;;;16.96;57.06;101207.00;5004323;28;20412;-75
2021/05/24 08:08:28;;;;;;;;;;;;;;;17.02;55.54;101211.59;5008084;28;19943;-76
2021/05/24 08:10:53;;;;;;;;;;;;;;;17.14;57.13;101214.66;5006941;28;19948;-77
2021/05/24 08:13:19;;;;;;;;;;;;;;;17.27;53.55;101212.25;5007994;28;20396;-77
2021/05/24 08:15:44;;;;;;;;;;;;;;;17.48;54.86;101213.38;5003334;28;19935;-76
2021/05/24 08:18:10;;;;;;;;;;;;;;;17.67;51.11;101204.88;5007776;28;20016;-76
2021/05/24 08:20:36;;;;;;;;;;;;;;;17.83;53.53;101200.41;5005622;28;20044;-77
2021/05/24 08:23:03;;;;;;;;;;;;;;;18.04;53.36;101202.34;4990713;28;19932;-76
2021/05/24 08:25:28;;;;;;;;;;;;;;;17.98;52.05;101195.13;5007028;28;19921;-76
2021/05/24 08:27:54;;;;;;;;;;;;;;;17.82;50.87;101202.25;5004795;28;19996;-77
2021/05/24 08:30:19;;;;;;;;;;;;;;;17.67;51.28;101202.22;5009133;28;19976;-77
2021/05/24 08:32:45;;;;;;;;;;;;;;;17.54;51.71;101201.19;5026613;28;19926;-76
2021/05/24 08:35:10;;;;;;;;;;;;;;;17.52;53.63;101193.44;5024930;28;19951;-76
2021/05/24 08:37:36;;;;;;;;;;;;;;;17.76;53.19;101187.03;5029439;28;19925;-75
2021/05/24 08:40:04;;;;;;;;;;;;;;;17.98;53.71;101184.50;5028331;28;19935;-76
2021/05/24 08:42:33;;;;;;;;;;;;;;;18.17;52.83;101183.09;5035881;28;19925;-76
2021/05/24 08:44:59;;;;;;;;;;;;;;;18.43;52.24;101179.94;5026514;28;19956;-76
2021/05/24 08:47:28;;;;;;;;;;;;;;;18.58;51.38;101169.28;5024348;28;19979;-75
2021/05/24 08:49:53;;;;;;;;;;;;;;;18.60;48.75;101168.06;5022691;28;19975;-76
2021/05/24 08:52:19;;;;;;;;;;;;;;;18.68;49.29;101165.28;5024531;28;19956;-77
2021/05/24 08:54:44;;;;;;;;;;;;;;;18.94;50.29;101168.41;5008024;28;19925;-75
2021/05/24 08:57:10;;;;;;;;;;;;;;;19.02;47.75;101162.94;5009227;28;20421;-76
2021/05/24 08:59:35;;;;;;;;;;;;;;;18.98;47.22;101154.53;5011431;28;19956;-76
2021/05/24 09:02:02;;;;;;;;;;;;;;;19.13;49.91;101149.13;5011552;28;19978;-75
2021/05/24 09:04:39;;;;;;;;;;;;;;;19.20;48.33;101154.50;5006875;28;19989;-77
2021/05/24 09:07:04;;;;;;;;;;;;;;;19.20;46.30;101163.31;5036166;28;19921;-75
2021/05/24 09:09:30;;;;;;;;;;;;;;;19.00;46.99;101163.13;4997394;28;20016;-76
2021/05/24 09:11:55;;;;;;;;;;;;;;;19.08;43.82;101153.38;5009848;28;19929;-76
2021/05/24 09:14:22;;;;;;;;;;;;;;;19.24;47.45;101148.59;5013944;28;19917;-76
2021/05/24 09:17:00;;;;;;;;;;;;;;;19.54;46.50;101156.38;5006351;28;19976;-75
2021/05/24 09:19:27;;;;;;;;;;;;;;;19.40;46.19;101151.97;5019889;28;20003;-75
2021/05/24 09:21:54;;;;;;;;;;;;;;;19.26;45.97;101145.75;5026676;28;19932;-75
2021/05/24 09:24:24;;;;;;;;;;;;;;;19.11;46.05;101135.22;5007457;28;19921;-76
2021/05/24 09:26:50;;;;;;;;;;;;;;;19.20;46.54;101141.22;5003397;28;20311;-77
2021/05/24 09:29:22;;;;;;;;;;;;;;;19.37;46.36;101120.47;5018331;28;19929;-77
2021/05/24 09:31:53;;;;;;;;;;;;;;;19.67;46.87;101118.38;5027245;28;19929;-77
2021/05/24 09:34:22;;;;;;;;;;;;;;;20.03;46.26;101126.13;5020248;28;19929;-77
2021/05/24 09:36:58;;;;;;;;;;;;;;;20.30;45.93;101123.53;5023219;28;19933;-77
2021/05/24 09:39:28;;;;;;;;;;;;;;;20.22;43.60;101127.19;5040760;28;19944;-75
2021/05/24 09:41:57;;;;;;;;;;;;;;;20.03;46.04;101120.78;5027608;28;20421;-75
2021/05/24 09:44:26;;;;;;;;;;;;;;;19.93;44.84;101112.38;5031414;28;20399;-75
2021/05/24 09:46:51;;;;;;;;;;;;;;;19.99;43.72;101113.41;5035173;28;19929;-77
2021/05/24 09:49:21;;;;;;;;;;;;;;;20.32;44.25;101105.50;5031847;28;19929;-76
2021/05/24 09:51:46;;;;;;;;;;;;;;;20.58;42.43;101109.22;5034055;28;19956;-75
2021/05/24 09:54:15;;;;;;;;;;;;;;;20.39;40.43;101106.34;5033723;28;19953;-76
2021/05/24 09:56:44;;;;;;;;;;;;;;;20.20;42.94;101099.13;5032893;28;19921;-76
2021/05/24 09:59:13;;;;;;;;;;;;;;;20.31;43.06;101097.72;5030633;28;20024;-76
2021/05/24 10:01:41;;;;;;;;;;;;;;;19.97;41.78;101099.50;5030243;28;20408;-76
2021/05/24 10:04:07;;;;;;;;;;;;;;;19.47;42.83;101091.66;5030080;28;19924;-75
2021/05/24 10:06:34;;;;;;;;;;;;;;;19.85;43.45;101085.91;5030530;28;20002;-75
2021/05/24 10:08:59;;;;;;;;;;;;;;;20.25;42.28;101082.53;5030520;28;20292;-76
2021/05/24 10:11:25;;;;;;;;;;;;;;;20.75;46.14;101078.50;5029371;28;20044;-75
2021/05/24 10:13:50;;;;;;;;;;;;;;;20.89;40.46;101076.66;5030875;28;19925;-76
2021/05/24 10:16:17;;;;;;;;;;;;;;;20.56;40.21;101071.31;5024620;28;20458;-76
2021/05/24 10:18:44;;;;;;;;;;;;;;;20.61;40.63;101063.56;5027033;28;19991;-75
2021/05/24 10:21:10;;;;;;;;;;;;;;;20.17;43.15;101070.22;5029482;28;19948;-76
2021/05/24 10:23:35;;;;;;;;;;;;;;;20.04;41.41;101060.38;5028239;28;19925;-76
2021/05/24 10:26:02;;;;;;;;;;;;;;;20.45;41.45;101067.41;5022838;28;19929;-77
2021/05/24 10:28:28;;;;;;;;;;;;;;;19.85;40.07;101059.28;5028370;28;19921;-77
2021/05/24 10:30:55;;;;;;;;;;;;;;;19.17;44.21;101057.31;5021826;28;20016;-77
2021/05/24 10:33:26;;;;;;;;;;;;;;;18.91;44.65;101052.69;5021638;28;19921;-77
2021/05/24 10:35:51;;;;;;;;;;;;;;;18.80;45.58;101059.34;5026272;28;20001;-78
2021/05/24 10:38:29;;;;;;;;;;;;;;;18.99;43.79;101041.88;5030462;28;19968;-76
2021/05/24 10:41:02;;;;;;;;;;;;;;;19.14;44.24;101047.09;5022270;28;19925;-78
2021/05/24 10:43:43;;;;;;;;;;;;;;;19.01;42.09;101047.81;5007393;28;19930;-78
2021/05/24 10:46:26;;;;;;;;;;;;;;;19.42;40.90;101044.38;5004401;28;19926;-78
2021/05/24 10:49:03;;;;;;;;;;;;;;;19.20;41.22;101041.00;5007668;28;19921;-76
2021/05/24 10:51:58;;;;;;;;;;;;;;;18.80;43.33;101042.56;5024510;28;20588;-77
2021/05/24 10:54:24;;;;;;;;;;;;;;;18.94;43.48;101052.28;5011296;28;19971;-76
2021/05/24 10:57:16;;;;;;;;;;;;;;;19.44;42.71;101033.53;5029799;28;20399;-78
2021/05/24 10:59:42;;;;;;;;;;;;;;;20.04;40.77;101033.75;5027589;28;19935;-77
2021/05/24 11:02:07;;;;;;;;;;;;;;;20.60;40.54;101033.41;5028087;28;19929;-77
2021/05/24 11:04:51;;;;;;;;;;;;;;;20.94;38.29;101030.72;5026881;28;19921;-79
2021/05/24 11:07:22;;;;;;;;;;;;;;;20.27;38.89;101021.88;5028064;28;19921;-77
2021/05/24 11:09:48;;;;;;;;;;;;;;;19.72;36.69;101006.88;5026595;28;19983;-79
2021/05/24 11:12:13;;;;;;;;;;;;;;;19.72;38.23;101001.56;5029944;28;20430;-76
2021/05/24 11:15:05;;;;;;;;;;;;;;;19.42;38.97;100999.16;5029025;28;19936;-79
2021/05/24 11:17:49;;;;;;;;;;;;;;;18.94;41.25;101001.78;5028489;28;20039;-76
2021/05/24 11:20:33;;;;;;;;;;;;;;;18.92;42.34;101003.81;5020331;28;19921;-76
2021/05/24 11:23:47;;;;;;;;;;;;;;;20.03;42.18;100997.50;5009085;28;19925;-75
2021/05/24 11:26:18;;;;;;;;;;;;;;;20.33;37.76;100987.28;5022270;28;20019;-77
2021/05/24 11:29:03;;;;;;;;;;;;;;;20.44;39.70;100993.84;5022276;28;19936;-76
2021/05/24 11:31:37;;;;;;;;;;;;;;;20.59;37.50;100991.78;5027291;28;20012;-75
2021/05/24 11:34:09;;;;;;;;;;;;;;;20.87;36.21;101004.06;5032990;28;19925;-75
2021/05/24 11:36:34;;;;;;;;;;;;;;;20.45;34.59;100992.81;5027408;28;19979;-77
2021/05/24 11:39:12;;;;;;;;;;;;;;;20.41;34.61;100994.25;5015397;28;19976;-76
2021/05/24 11:41:54;;;;;;;;;;;;;;;20.89;35.29;100983.34;5002507;28;19929;-77
2021/05/24 11:44:24;;;;;;;;;;;;;;;21.15;33.65;100985.13;4993922;28;19926;-76
2021/05/24 11:46:51;;;;;;;;;;;;;;;21.42;33.81;100973.50;5009424;28;19925;-75
2021/05/24 11:49:17;;;;;;;;;;;;;;;21.33;34.68;100962.28;5007529;28;19927;-74
2021/05/24 11:51:44;;;;;;;;;;;;;;;21.57;35.13;100961.56;5006533;28;19921;-76
2021/05/24 11:54:11;;;;;;;;;;;;;;;21.71;34.22;100954.28;4989500;28;19947;-75
2021/05/24 11:56:40;;;;;;;;;;;;;;;21.67;33.96;100952.28;5006643;28;19972;-76
2021/05/24 11:59:06;;;;;;;;;;;;;;;21.34;34.52;100940.72;5006564;28;20312;-75
2021/05/24 12:01:32;;;;;;;;;;;;;;;21.11;33.23;100930.56;5028516;28;19927;-76
2021/05/24 12:03:57;;;;;;;;;;;;;;;20.88;36.02;100939.06;5026360;28;19925;-76
2021/05/24 12:06:24;;;;;;;;;;;;;;;20.71;33.49;100946.69;5010847;28;19983;-76
2021/05/24 12:08:50;;;;;;;;;;;;;;;20.18;33.14;100934.22;5027689;28;19967;-77
2021/05/24 12:11:16;;;;;;;;;;;;;;;19.78;33.58;100936.06;5017612;28;19925;-75
2021/05/24 12:13:57;;;;;;;;;;;;;;;19.62;35.35;100939.88;5026644;28;20008;-77
2021/05/24 12:16:23;;;;;;;;;;;;;;;19.47;33.03;100929.38;5027833;28;19926;-75
2021/05/24 12:18:52;;;;;;;;;;;;;;;19.62;34.64;100924.72;5027910;28;19927;-78
2021/05/24 12:21:31;;;;;;;;;;;;;;;19.56;32.88;100912.22;5026923;28;19929;-77
2021/05/24 12:24:04;;;;;;;;;;;;;;;20.09;33.82;100923.97;5027352;28;19926;-76
2021/05/24 12:26:29;;;;;;;;;;;;;;;20.65;32.50;100922.72;5028582;28;19929;-77
2021/05/24 12:28:56;;;;;;;;;;;;;;;20.70;31.62;100914.91;5028192;28;20593;-77
2021/05/24 12:31:22;;;;;;;;;;;;;;;21.01;31.52;100900.88;5039135;28;19978;-77
2021/05/24 12:33:48;;;;;;;;;;;;;;;21.56;34.01;100887.03;5036218;28;20008;-76
2021/05/24 12:36:19;;;;;;;;;;;;;;;21.75;30.67;100894.09;5025703;28;20491;-76
2021/05/24 12:38:48;;;;;;;;;;;;;;;22.04;31.36;100885.63;5022769;28;19924;-77
2021/05/24 12:41:15;;;;;;;;;;;;;;;22.20;31.72;100889.63;5016272;28;19925;-77